Time;durP1;ratioP1;P1;durP2;ratioP2;P2;SDS_P1;SDS_P2;PMS_P1;PMS_P2;Temp;Humidity;BMP_temperature;BMP_pressure;BME280_temperature;BME280_humidity;BME280_pressure;Samples;Min_cycle;Max_cycle;Signal;HPM_P1;HPM_P2
2022/06/24 00:02:22;;;;;;;6.03;5.40;;;28.40;48.70;;;;;;5050886;28;20462;-90
2022/06/24 00:04:55;;;;;;;8.00;6.07;;;28.50;48.30;;;;;;5051581;28;20822;-85
2022/06/24 00:07:22;;;;;;;7.33;4.60;;;28.60;48.30;;;;;;5050129;28;22309;-88
2022/06/24 00:09:49;;;;;;;5.90;5.30;;;28.60;47.50;;;;;;5047837;28;20982;-86
2022/06/24 00:12:19;;;;;;;9.60;5.47;;;28.50;47.80;;;;;;5057919;28;20458;-87
2022/06/24 00:14:57;;;;;;;13.43;5.10;;;28.50;47.70;;;;;;5047189;28;20477;-86
2022/06/24 00:17:28;;;;;;;6.80;3.50;;;28.50;46.60;;;;;;5049169;28;20447;-86
2022/06/24 00:19:58;;;;;;;3.70;3.33;;;28.30;45.90;;;;;;5050758;28;20469;-88
2022/06/24 00:22:26;;;;;;;8.43;3.33;;;28.30;45.60;;;;;;5052906;28;20445;-87
2022/06/24 00:25:08;;;;;;;4.57;2.70;;;28.20;45.40;;;;;;5048670;28;20844;-87
2022/06/24 00:27:37;;;;;;;4.07;2.50;;;28.30;45.10;;;;;;5051552;28;20513;-87
2022/06/24 00:30:12;;;;;;;13.13;2.40;;;28.20;44.30;;;;;;5054622;28;20480;-85
2022/06/24 00:32:39;;;;;;;5.13;2.63;;;27.70;44.60;;;;;;5055132;28;20542;-85
2022/06/24 00:35:09;;;;;;;4.10;2.10;;;27.30;45.20;;;;;;5051609;28;20465;-85
2022/06/24 00:37:38;;;;;;;5.50;2.10;;;27.10;45.70;;;;;;5049417;28;20481;-86
2022/06/24 00:40:25;;;;;;;3.73;1.93;;;27.20;45.40;;;;;;5054619;28;20495;-88
2022/06/24 00:42:54;;;;;;;2.70;1.50;;;27.40;45.30;;;;;;5050443;28;20456;-89
2022/06/24 00:45:27;;;;;;;6.33;1.87;;;27.40;45.00;;;;;;5043783;28;20757;-86
2022/06/24 00:47:56;;;;;;;4.23;1.93;;;27.70;44.70;;;;;;5061661;28;20449;-85
2022/06/24 00:50:25;;;;;;;2.73;1.60;;;27.50;44.90;;;;;;5055613;28;20472;-87
2022/06/24 00:52:53;;;;;;;3.70;1.30;;;27.60;44.30;;;;;;5052073;28;20490;-85
2022/06/24 00:55:24;;;;;;;5.70;1.97;;;27.60;43.80;;;;;;5037020;28;20461;-90
2022/06/24 00:57:52;;;;;;;3.70;1.80;;;27.70;43.90;;;;;;5067292;28;20463;-86
2022/06/24 01:00:20;;;;;;;3.73;1.43;;;27.80;43.80;;;;;;5043211;28;22767;-85
2022/06/24 01:02:48;;;;;;;5.70;1.63;;;27.70;43.70;;;;;;5051225;28;20877;-87
2022/06/24 01:05:18;;;;;;;5.73;1.77;;;27.90;43.70;;;;;;5051930;28;20472;-85
2022/06/24 01:07:45;;;;;;;2.30;1.57;;;27.80;43.60;;;;;;5052279;28;20477;-85
2022/06/24 01:10:12;;;;;;;2.00;1.40;;;27.70;43.80;;;;;;5033577;28;20481;-88
2022/06/24 01:12:39;;;;;;;5.43;1.30;;;27.60;44.00;;;;;;5054057;28;20484;-87
2022/06/24 01:15:08;;;;;;;3.60;1.70;;;27.70;44.00;;;;;;5051035;28;20445;-89
2022/06/24 01:17:36;;;;;;;2.20;1.60;;;27.50;44.20;;;;;;5053722;28;20442;-88
2022/06/24 01:20:04;;;;;;;4.93;1.57;;;27.40;44.50;;;;;;5055078;28;20469;-89
2022/06/24 01:22:33;;;;;;;5.30;1.60;;;27.60;44.40;;;;;;5042072;28;20449;-86
2022/06/24 01:25:00;;;;;;;2.40;1.50;;;27.70;44.10;;;;;;5049834;28;20489;-86
2022/06/24 01:27:27;;;;;;;3.73;1.50;;;27.80;43.90;;;;;;5051269;28;20449;-88
2022/06/24 01:29:54;;;;;;;5.30;1.90;;;27.90;43.90;;;;;;5048998;28;20538;-86
2022/06/24 01:32:21;;;;;;;4.30;1.40;;;27.80;44.20;;;;;;5055457;28;20952;-87
2022/06/24 01:34:48;;;;;;;9.83;1.63;;;27.80;44.40;;;;;;5049478;28;20449;-85
2022/06/24 01:37:15;;;;;;;1.30;1.00;;;27.80;44.60;;;;;;5052238;28;20441;-88
2022/06/24 01:39:44;;;;;;;1.33;1.17;;;27.80;44.90;;;;;;5051423;28;20453;-85
2022/06/24 01:42:11;;;;;;;4.83;1.73;;;27.70;45.10;;;;;;5050681;28;20475;-87
2022/06/24 01:44:38;;;;;;;5.47;1.50;;;27.30;46.50;;;;;;5051800;28;20902;-85
2022/06/24 01:47:05;;;;;;;3.53;1.53;;;27.20;47.80;;;;;;5069537;28;20450;-90
2022/06/24 01:49:33;;;;;;;3.77;1.83;;;27.10;49.30;;;;;;5050630;28;20477;-86
2022/06/24 01:52:00;;;;;;;3.50;1.80;;;27.00;50.50;;;;;;5056258;28;20472;-90
2022/06/24 01:54:27;;;;;;;5.00;2.23;;;26.80;51.30;;;;;;5037483;28;20487;-86
2022/06/24 01:56:56;;;;;;;2.60;1.30;;;26.50;52.30;;;;;;5056436;28;20453;-86
2022/06/24 01:59:23;;;;;;;4.10;1.60;;;26.40;53.60;;;;;;5039905;28;20490;-86
2022/06/24 02:01:50;;;;;;;1.67;1.30;;;26.30;54.20;;;;;;5056153;28;21107;-86
2022/06/24 02:04:17;;;;;;;1.93;1.00;;;26.50;54.10;;;;;;5051966;28;21045;-86
2022/06/24 02:06:44;;;;;;;5.80;1.47;;;26.60;53.60;;;;;;5041668;28;20445;-88
2022/06/24 02:09:11;;;;;;;2.40;1.20;;;26.70;54.40;;;;;;5056211;28;20469;-86
2022/06/24 02:14:25;;;;;;;3.00;1.60;;;26.80;53.70;;;;;;5073300;28;20444;-86
2022/06/24 02:16:52;;;;;;;2.40;1.50;;;26.90;53.90;;;;;;5057552;28;20995;-87
2022/06/24 02:19:19;;;;;;;2.50;1.40;;;26.80;54.10;;;;;;5068722;28;20486;-87
2022/06/24 02:21:46;;;;;;;2.57;1.30;;;26.20;54.90;;;;;;5061755;28;20591;-89
2022/06/24 02:24:15;;;;;;;7.40;1.87;;;26.30;56.20;;;;;;5054124;28;20449;-87
2022/06/24 02:26:43;;;;;;;2.70;1.60;;;26.50;56.40;;;;;;5053572;28;20457;-87
2022/06/24 02:29:10;;;;;;;7.20;1.90;;;26.60;56.30;;;;;;5053341;28;21352;-87
2022/06/24 02:31:39;;;;;;;4.50;1.50;;;26.70;55.60;;;;;;5056619;28;20891;-90
2022/06/24 02:34:06;;;;;;;4.83;1.53;;;26.70;54.90;;;;;;5060792;28;20540;-87
2022/06/24 02:36:33;;;;;;;3.23;1.50;;;26.70;55.20;;;;;;5044708;28;20442;-90
2022/06/24 02:39:00;;;;;;;4.10;1.53;;;26.70;55.70;;;;;;5051274;28;20458;-88
2022/06/24 02:41:28;;;;;;;3.03;1.57;;;26.80;55.40;;;;;;5056640;28;21073;-90
2022/06/24 02:43:55;;;;;;;7.23;1.40;;;26.80;55.70;;;;;;5056594;28;20463;-87
2022/06/24 02:46:22;;;;;;;1.87;1.43;;;26.90;55.30;;;;;;5055948;28;20467;-91
2022/06/24 02:48:50;;;;;;;3.20;2.00;;;26.80;54.60;;;;;;5064131;28;20438;-92
2022/06/24 02:51:18;;;;;;;1.83;1.63;;;26.50;55.60;;;;;;5021279;28;21037;-91
2022/06/24 02:53:45;;;;;;;2.90;1.50;;;26.50;56.50;;;;;;5050515;28;20460;-88
2022/06/24 02:56:14;;;;;;;3.63;2.10;;;26.60;56.20;;;;;;5037435;28;20472;-88
2022/06/24 02:58:42;;;;;;;4.10;1.63;;;26.60;56.20;;;;;;5053182;28;20448;-90
2022/06/24 03:01:10;;;;;;;2.57;2.30;;;26.60;56.40;;;;;;5069397;28;20484;-88
2022/06/24 03:03:37;;;;;;;5.40;2.30;;;26.60;56.90;;;;;;5054840;28;20486;-90
2022/06/24 03:06:06;;;;;;;5.00;1.90;;;26.60;56.70;;;;;;5057358;28;20464;-90
2022/06/24 03:08:34;;;;;;;3.10;1.70;;;26.60;56.80;;;;;;5041451;28;20454;-89
2022/06/24 03:11:01;;;;;;;2.67;1.87;;;26.60;56.40;;;;;;5056102;28;20476;-90
2022/06/24 03:13:29;;;;;;;4.67;1.87;;;26.50;56.20;;;;;;5044552;28;20479;-89
2022/06/24 03:15:56;;;;;;;2.27;1.60;;;26.50;56.20;;;;;;5066670;28;20454;-89
2022/06/24 03:18:24;;;;;;;7.30;2.30;;;26.50;56.90;;;;;;5060691;28;20457;-91
2022/06/24 03:20:51;;;;;;;2.50;1.93;;;26.30;56.50;;;;;;5044549;28;20456;-89
2022/06/24 03:23:20;;;;;;;2.70;1.77;;;25.90;57.50;;;;;;5059620;28;20452;-92
2022/06/24 03:25:46;;;;;;;3.33;1.77;;;26.00;58.30;;;;;;5057472;28;20701;-90
2022/06/24 03:28:14;;;;;;;2.27;1.83;;;26.10;58.20;;;;;;5044520;28;20458;-88
2022/06/24 03:30:41;;;;;;;2.13;1.60;;;26.20;57.70;;;;;;5037797;28;20554;-90
2022/06/24 03:33:08;;;;;;;2.00;1.87;;;26.40;57.40;;;;;;5056869;28;20474;-88
2022/06/24 03:35:35;;;;;;;4.63;2.10;;;26.40;57.80;;;;;;5072130;28;20476;-88
2022/06/24 03:38:02;;;;;;;4.70;1.70;;;26.40;57.00;;;;;;5057091;28;20452;-88
2022/06/24 03:40:31;;;;;;;4.70;1.70;;;26.30;57.40;;;;;;5050705;28;20997;-92
2022/06/24 03:42:58;;;;;;;7.20;1.80;;;26.40;57.30;;;;;;5050465;28;20475;-88
2022/06/24 03:45:25;;;;;;;2.50;1.70;;;26.30;57.20;;;;;;5056179;28;21477;-91
2022/06/24 03:47:52;;;;;;;2.00;1.80;;;26.20;57.20;;;;;;5057727;28;20806;-89
2022/06/24 03:50:19;;;;;;;3.00;2.10;;;26.20;56.80;;;;;;5048931;28;20464;-91
2022/06/24 03:52:46;;;;;;;3.60;2.30;;;26.20;57.30;;;;;;5042445;28;20441;-88
2022/06/24 03:55:13;;;;;;;4.83;1.93;;;26.20;57.20;;;;;;5060186;28;20506;-89
2022/06/24 03:57:41;;;;;;;3.60;2.13;;;26.30;57.10;;;;;;5044725;28;20452;-89
2022/06/24 04:00:09;;;;;;;8.10;2.57;;;26.30;56.90;;;;;;5038281;28;21101;-91
2022/06/24 04:02:40;;;;;;;3.23;1.90;;;26.20;56.90;;;;;;5044753;28;20535;-89
2022/06/24 04:05:09;;;;;;;4.77;2.00;;;26.20;57.20;;;;;;5059558;28;20883;-89
2022/06/24 04:07:36;;;;;;;2.33;1.97;;;26.30;57.50;;;;;;5063169;28;20452;-93
2022/06/24 04:10:04;;;;;;;4.07;2.30;;;26.30;56.90;;;;;;5032218;28;20476;-89
2022/06/24 04:12:31;;;;;;;4.83;2.43;;;26.20;56.90;;;;;;5033908;28;20763;-90
2022/06/24 04:15:14;;;;;;;4.33;2.10;;;26.20;57.40;;;;;;5051925;28;20464;-89
2022/06/24 04:17:41;;;;;;;2.93;2.27;;;26.20;57.30;;;;;;5065356;28;20480;-89
2022/06/24 04:20:09;;;;;;;2.30;2.10;;;26.10;57.50;;;;;;5059464;28;20473;-89
2022/06/24 04:22:36;;;;;;;2.37;2.10;;;26.10;57.60;;;;;;5049382;28;20464;-93
2022/06/24 04:25:04;;;;;;;3.87;2.10;;;26.10;57.20;;;;;;5040653;28;20468;-91
2022/06/24 04:27:31;;;;;;;6.00;2.57;;;26.10;57.20;;;;;;5061828;28;20453;-90
2022/06/24 04:30:04;;;;;;;4.13;2.17;;;26.00;57.30;;;;;;5058482;28;20461;-88
2022/06/24 04:32:32;;;;;;;8.00;2.50;;;26.10;57.30;;;;;;5036070;28;20452;-88
2022/06/24 04:34:58;;;;;;;4.60;2.10;;;26.10;57.50;;;;;;5062997;28;20453;-89
2022/06/24 04:37:25;;;;;;;4.23;2.47;;;26.00;57.40;;;;;;5059715;28;20785;-90
2022/06/24 04:39:52;;;;;;;2.90;2.23;;;26.00;57.50;;;;;;5058237;28;20811;-91
2022/06/24 04:42:20;;;;;;;5.70;2.40;;;26.00;57.50;;;;;;5044611;28;20495;-90
2022/06/24 04:44:47;;;;;;;3.50;3.20;;;25.90;57.50;;;;;;5042816;28;20816;-88
2022/06/24 04:47:15;;;;;;;2.40;1.87;;;26.10;57.30;;;;;;5067721;28;20928;-89
2022/06/24 04:49:42;;;;;;;3.43;2.53;;;25.80;57.40;;;;;;5061010;28;20810;-88
2022/06/24 04:52:09;;;;;;;3.20;1.93;;;25.70;57.70;;;;;;5058433;28;20528;-88
2022/06/24 04:54:36;;;;;;;6.73;2.13;;;25.80;58.10;;;;;;5058812;28;21133;-91
2022/06/24 04:57:04;;;;;;;3.20;1.80;;;25.90;57.90;;;;;;5056634;28;20457;-87
2022/06/24 04:59:31;;;;;;;3.10;2.00;;;25.70;57.50;;;;;;5055809;28;20455;-91
2022/06/24 05:01:58;;;;;;;3.33;1.80;;;25.70;58.00;;;;;;5055462;28;20469;-89
2022/06/24 05:04:26;;;;;;;2.10;1.90;;;25.80;58.10;;;;;;5054133;28;20490;-89
2022/06/24 05:06:53;;;;;;;3.00;2.10;;;25.90;58.00;;;;;;5056706;28;20458;-89
2022/06/24 05:09:21;;;;;;;2.30;2.10;;;26.00;57.60;;;;;;5034027;28;20832;-88
2022/06/24 05:11:50;;;;;;;2.37;2.00;;;26.10;57.60;;;;;;5070684;28;20481;-91
2022/06/24 05:14:17;;;;;;;2.70;2.27;;;26.10;57.70;;;;;;5050379;28;20452;-88
2022/06/24 05:16:44;;;;;;;3.20;2.23;;;26.10;57.10;;;;;;5055802;28;20532;-89
2022/06/24 05:19:17;;;;;;;2.40;2.20;;;26.10;57.20;;;;;;5062630;28;20782;-90
2022/06/24 05:21:46;;;;;;;7.50;2.17;;;26.10;57.70;;;;;;5054500;28;20465;-90
2022/06/24 05:24:13;;;;;;;2.70;2.07;;;26.10;57.80;;;;;;5054313;28;20813;-91
2022/06/24 05:26:41;;;;;;;4.07;3.00;;;26.10;58.20;;;;;;5045853;28;20457;-89
2022/06/24 05:29:08;;;;;;;4.20;2.13;;;26.00;57.60;;;;;;5044044;28;21265;-90
2022/06/24 05:31:35;;;;;;;2.87;2.13;;;25.90;57.40;;;;;;5049321;28;20464;-92
2022/06/24 05:34:02;;;;;;;2.13;1.93;;;25.60;58.30;;;;;;5051670;28;20473;-88
2022/06/24 05:36:29;;;;;;;5.13;3.20;;;25.70;59.20;;;;;;5059576;28;20457;-89
2022/06/24 05:38:58;;;;;;;2.60;1.97;;;25.80;58.90;;;;;;5042187;28;20463;-91
2022/06/24 05:41:25;;;;;;;2.20;1.90;;;25.80;58.40;;;;;;5064325;28;21000;-89
2022/06/24 05:43:52;;;;;;;3.37;2.07;;;25.90;58.50;;;;;;5049773;28;20540;-90
2022/06/24 05:46:19;;;;;;;4.47;2.00;;;26.00;58.50;;;;;;5052151;28;20465;-91
2022/06/24 05:48:46;;;;;;;2.07;1.97;;;25.80;57.70;;;;;;5061152;28;20881;-93
2022/06/24 05:51:16;;;;;;;2.97;2.07;;;25.80;58.90;;;;;;5033581;28;20477;-90
2022/06/24 05:56:30;;;;;;;3.63;3.07;;;26.10;58.40;;;;;;5042725;28;20437;-90
2022/06/24 05:58:58;;;;;;;5.03;3.00;;;25.90;58.30;;;;;;5023612;28;20448;-89
2022/06/24 06:01:26;;;;;;;6.10;3.10;;;26.00;58.50;;;;;;5056734;28;20483;-90
2022/06/24 06:03:53;;;;;;;3.00;2.80;;;26.10;58.50;;;;;;5057598;28;20476;-89
2022/06/24 06:06:20;;;;;;;8.13;3.40;;;26.20;58.30;;;;;;5052976;28;21020;-91
2022/06/24 06:08:47;;;;;;;4.07;3.10;;;25.90;58.60;;;;;;5042806;28;20453;-91
2022/06/24 06:11:17;;;;;;;7.47;3.43;;;26.00;58.20;;;;;;5051056;28;20571;-90
2022/06/24 06:13:47;;;;;;;8.10;3.57;;;25.80;57.90;;;;;;5050169;28;20604;-90
2022/06/24 06:16:14;;;;;;;7.27;3.80;;;26.00;58.40;;;;;;5068678;28;20445;-89
2022/06/24 06:18:41;;;;;;;4.47;3.50;;;26.10;58.10;;;;;;5071658;28;20444;-89
2022/06/24 06:21:10;;;;;;;5.70;3.90;;;26.00;57.50;;;;;;5052370;28;20472;-88
2022/06/24 06:23:39;;;;;;;4.57;3.80;;;26.20;57.90;;;;;;5046510;28;20540;-89
2022/06/24 06:26:09;;;;;;;8.03;3.80;;;26.40;58.10;;;;;;5047613;28;20488;-89
2022/06/24 06:28:36;;;;;;;9.40;4.90;;;26.30;57.00;;;;;;5049094;28;20507;-90
2022/06/24 06:31:05;;;;;;;5.50;4.60;;;26.00;58.40;;;;;;5063379;28;20567;-87
2022/06/24 06:33:32;;;;;;;4.30;3.90;;;26.20;57.60;;;;;;5047277;28;20450;-89
2022/06/24 06:36:04;;;;;;;7.90;5.13;;;26.40;57.00;;;;;;5042475;28;20629;-88
2022/06/24 06:38:31;;;;;;;6.00;5.13;;;26.40;56.70;;;;;;5043841;28;20606;-88
2022/06/24 06:40:58;;;;;;;6.63;5.70;;;26.10;57.00;;;;;;5044661;28;20469;-88
2022/06/24 06:43:25;;;;;;;10.80;6.30;;;25.90;57.30;;;;;;5044933;28;20465;-87
2022/06/24 06:45:53;;;;;;;6.73;5.10;;;26.00;57.90;;;;;;5046984;28;20993;-88
2022/06/24 06:48:22;;;;;;;6.20;5.60;;;26.10;57.00;;;;;;5060263;28;20493;-88
2022/06/24 06:50:54;;;;;;;7.10;5.43;;;26.30;57.10;;;;;;5043611;28;20487;-88
2022/06/24 06:53:21;;;;;;;5.93;5.33;;;26.50;56.30;;;;;;5028483;28;20445;-88
2022/06/24 06:55:49;;;;;;;9.33;6.57;;;26.50;56.40;;;;;;5030393;28;20452;-90
2022/06/24 06:58:15;;;;;;;7.50;6.27;;;26.40;56.60;;;;;;5046188;28;20578;-86
2022/06/24 07:00:43;;;;;;;12.17;6.47;;;25.80;57.50;;;;;;5040298;28;20471;-89
2022/06/24 07:03:10;;;;;;;6.83;6.13;;;25.90;58.30;;;;;;5044330;28;20583;-89
2022/06/24 07:05:39;;;;;;;7.77;5.87;;;26.20;57.80;;;;;;5046193;28;20463;-91
2022/06/24 07:08:07;;;;;;;7.00;6.30;;;25.90;57.00;;;;;;5047308;28;20815;-89
2022/06/24 07:10:34;;;;;;;7.30;5.30;;;25.90;57.50;;;;;;5038846;28;20507;-90
2022/06/24 07:13:01;;;;;;;10.40;5.23;;;26.00;56.80;;;;;;5067388;28;20449;-91
2022/06/24 07:15:28;;;;;;;9.20;5.20;;;26.10;57.20;;;;;;5027778;28;20467;-88
2022/06/24 07:17:55;;;;;;;8.83;6.60;;;26.20;56.90;;;;;;5052423;28;21177;-89
2022/06/24 07:20:22;;;;;;;9.73;5.83;;;26.40;56.90;;;;;;5052336;28;20484;-88
2022/06/24 07:22:50;;;;;;;10.33;6.07;;;26.20;55.90;;;;;;5039711;28;20464;-88
2022/06/24 07:25:17;;;;;;;8.87;6.60;;;26.10;56.70;;;;;;5048296;28;20452;-91
2022/06/24 07:27:44;;;;;;;6.80;6.10;;;26.30;57.20;;;;;;5047654;28;20454;-91
2022/06/24 07:30:12;;;;;;;5.93;5.37;;;26.50;56.00;;;;;;5053602;28;21114;-88
2022/06/24 07:32:39;;;;;;;7.80;6.20;;;26.50;56.60;;;;;;5051437;28;20850;-89
2022/06/24 07:35:07;;;;;;;6.13;5.60;;;26.60;56.10;;;;;;5053190;28;20452;-91
2022/06/24 07:37:34;;;;;;;6.60;5.50;;;26.70;56.70;;;;;;5036111;28;20814;-88
2022/06/24 07:40:03;;;;;;;6.20;5.37;;;26.50;56.30;;;;;;5044973;28;20449;-89
2022/06/24 07:42:30;;;;;;;7.80;4.90;;;26.50;56.90;;;;;;5018784;28;20442;-89
2022/06/24 07:44:58;;;;;;;7.00;4.93;;;26.80;56.30;;;;;;5051690;28;20448;-88
2022/06/24 07:47:25;;;;;;;5.50;4.30;;;27.10;55.70;;;;;;5040763;28;20458;-87
2022/06/24 07:49:52;;;;;;;4.70;4.30;;;27.00;54.90;;;;;;5046245;28;20810;-89
2022/06/24 07:52:18;;;;;;;5.70;4.57;;;27.20;55.40;;;;;;5048658;28;20465;-89
2022/06/24 07:54:45;;;;;;;6.07;4.27;;;27.40;55.10;;;;;;5061336;28;20441;-88
2022/06/24 07:57:13;;;;;;;4.37;2.90;;;27.20;54.20;;;;;;5038057;28;20469;-91
2022/06/24 07:59:45;;;;;;;11.60;4.20;;;26.70;54.80;;;;;;5048209;28;20556;-89
2022/06/24 08:02:12;;;;;;;4.07;3.67;;;26.80;55.80;;;;;;5050774;28;21052;-88
2022/06/24 08:04:39;;;;;;;4.30;3.13;;;26.70;53.70;;;;;;5052571;28;20457;-92
2022/06/24 08:07:06;;;;;;;4.20;3.10;;;26.70;53.90;;;;;;5053527;28;20448;-88
2022/06/24 08:09:33;;;;;;;3.83;3.00;;;26.90;53.00;;;;;;5040822;28;20972;-88
2022/06/24 08:12:00;;;;;;;7.37;2.90;;;27.30;54.60;;;;;;5049257;28;20591;-87
2022/06/24 08:14:29;;;;;;;6.40;3.07;;;27.50;52.20;;;;;;5040915;28;20547;-89
2022/06/24 08:16:56;;;;;;;4.67;3.20;;;27.70;51.30;;;;;;5051598;28;20452;-88
2022/06/24 08:19:23;;;;;;;3.63;2.63;;;27.50;52.20;;;;;;5056759;28;20629;-91
2022/06/24 08:21:50;;;;;;;5.03;2.53;;;27.20;53.00;;;;;;5036361;28;21293;-88
2022/06/24 08:24:17;;;;;;;4.10;2.63;;;27.00;53.20;;;;;;5049633;28;20453;-88
2022/06/24 08:26:44;;;;;;;4.93;2.87;;;27.10;52.90;;;;;;5035185;28;20459;-87
2022/06/24 08:29:11;;;;;;;6.37;3.07;;;27.00;52.50;;;;;;5048073;28;20500;-87
2022/06/24 08:31:39;;;;;;;3.07;2.73;;;27.00;52.00;;;;;;5048744;28;20477;-89
2022/06/24 08:34:06;;;;;;;3.10;2.73;;;27.00;51.80;;;;;;5057040;28;20453;-92
2022/06/24 08:36:33;;;;;;;7.83;3.43;;;27.00;51.60;;;;;;5060305;28;20962;-87
2022/06/24 08:39:00;;;;;;;8.97;2.60;;;27.20;51.00;;;;;;5035811;28;20458;-88
2022/06/24 08:41:27;;;;;;;2.60;2.40;;;27.30;50.00;;;;;;5050001;28;20537;-87
2022/06/24 08:43:55;;;;;;;5.10;2.43;;;27.50;50.00;;;;;;5052523;28;20529;-92
2022/06/24 08:46:25;;;;;;;3.50;2.30;;;27.70;49.70;;;;;;5055398;28;20804;-89
2022/06/24 08:48:58;;;;;;;2.53;2.33;;;27.80;48.90;;;;;;5049297;28;20436;-87
2022/06/24 08:51:26;;;;;;;2.80;2.40;;;28.00;48.60;;;;;;5051920;28;20478;-87
2022/06/24 08:53:57;;;;;;;5.40;2.50;;;28.20;48.40;;;;;;5053386;28;21204;-88
2022/06/24 08:56:24;;;;;;;2.00;1.90;;;28.60;48.00;;;;;;5052133;28;20893;-87
2022/06/24 08:58:53;;;;;;;3.77;2.53;;;28.90;46.30;;;;;;5070555;28;20445;-90
2022/06/24 09:01:20;;;;;;;3.63;1.90;;;29.00;45.60;;;;;;5059965;28;20476;-89
2022/06/24 09:03:48;;;;;;;3.90;2.03;;;28.80;45.50;;;;;;5052990;28;20453;-88
2022/06/24 09:06:17;;;;;;;2.70;2.07;;;28.70;44.50;;;;;;5068442;28;20442;-86
2022/06/24 09:08:47;;;;;;;6.50;2.40;;;28.60;44.50;;;;;;5051898;28;20968;-86
2022/06/24 09:11:14;;;;;;;2.63;2.37;;;28.90;44.30;;;;;;5059271;28;20465;-86
2022/06/24 09:13:43;;;;;;;2.17;2.07;;;28.90;45.50;;;;;;5049572;28;20555;-89
2022/06/24 09:16:11;;;;;;;2.23;2.03;;;28.90;45.10;;;;;;5058547;28;20837;-89
2022/06/24 09:18:38;;;;;;;2.70;2.50;;;28.90;44.20;;;;;;5051495;28;21173;-86
2022/06/24 09:21:05;;;;;;;5.10;2.27;;;29.10;44.00;;;;;;5047682;28;20488;-86
2022/06/24 09:23:33;;;;;;;5.87;2.80;;;29.00;44.70;;;;;;5035385;28;20446;-87
2022/06/24 09:26:01;;;;;;;2.60;2.40;;;29.30;44.90;;;;;;5062418;28;20450;-91
2022/06/24 09:28:29;;;;;;;2.60;2.13;;;29.40;43.70;;;;;;5042087;28;20752;-89
2022/06/24 09:31:03;;;;;;;2.50;2.30;;;29.40;44.40;;;;;;5050269;28;20457;-87
2022/06/24 09:33:36;;;;;;;2.43;2.10;;;29.50;43.30;;;;;;5055104;28;21010;-88
2022/06/24 09:36:06;;;;;;;3.77;1.97;;;29.60;43.60;;;;;;5047874;28;20466;-86
2022/06/24 09:38:53;;;;;;;4.13;2.50;;;29.50;42.60;;;;;;5047422;28;20447;-87
2022/06/24 09:41:20;;;;;;;3.03;2.73;;;29.50;42.80;;;;;;5048839;28;20989;-87
2022/06/24 09:43:47;;;;;;;5.10;2.30;;;29.50;43.60;;;;;;5045763;28;20515;-88
2022/06/24 09:46:18;;;;;;;1.87;1.73;;;29.60;42.80;;;;;;5035462;28;20470;-88
2022/06/24 09:48:44;;;;;;;4.63;2.57;;;29.90;42.80;;;;;;5050408;28;20450;-88
2022/06/24 09:51:12;;;;;;;4.80;2.30;;;30.00;41.90;;;;;;5047253;28;20488;-86
2022/06/24 09:53:41;;;;;;;2.50;2.23;;;30.00;42.40;;;;;;5051100;28;21094;-91
2022/06/24 09:56:10;;;;;;;3.40;2.10;;;29.80;42.40;;;;;;5047607;28;20515;-85
2022/06/24 09:58:37;;;;;;;2.50;2.20;;;29.80;43.30;;;;;;5049292;28;21185;-91
2022/06/24 10:01:04;;;;;;;3.20;2.07;;;29.70;40.90;;;;;;5047500;28;20592;-86
2022/06/24 10:03:31;;;;;;;2.90;2.17;;;29.30;41.10;;;;;;5049905;28;20441;-86
2022/06/24 10:06:02;;;;;;;3.00;2.50;;;29.10;41.50;;;;;;5047080;28;20450;-84
2022/06/24 10:08:33;;;;;;;2.70;1.97;;;29.00;41.80;;;;;;5050050;28;20506;-87
2022/06/24 10:11:06;;;;;;;2.43;2.23;;;29.30;41.70;;;;;;5064949;28;21049;-86
2022/06/24 10:13:34;;;;;;;2.43;2.23;;;29.40;40.90;;;;;;5050750;28;20462;-87
2022/06/24 10:16:02;;;;;;;2.53;2.33;;;29.70;42.20;;;;;;5047315;28;20533;-86
2022/06/24 10:18:32;;;;;;;4.60;2.73;;;29.90;40.80;;;;;;5048115;28;21268;-88
2022/06/24 10:21:02;;;;;;;3.10;2.33;;;30.30;40.60;;;;;;5045795;28;20461;-88
2022/06/24 10:23:40;;;;;;;2.33;2.13;;;30.40;39.80;;;;;;5044904;28;20453;-86
2022/06/24 10:26:13;;;;;;;2.60;2.27;;;30.50;39.50;;;;;;5062380;28;20830;-86
2022/06/24 10:29:20;;;;;;;2.23;2.10;;;30.30;39.20;;;;;;5045161;28;20460;-88
2022/06/24 10:32:14;;;;;;;3.80;2.20;;;30.20;38.80;;;;;;5050729;28;20506;-85
2022/06/24 10:34:44;;;;;;;3.13;2.27;;;30.20;40.10;;;;;;5062116;28;20503;-87
2022/06/24 10:37:30;;;;;;;2.57;2.13;;;30.20;39.40;;;;;;5048996;28;20525;-86
2022/06/24 10:39:59;;;;;;;4.00;1.90;;;30.30;39.20;;;;;;5047157;28;20549;-86
2022/06/24 10:42:30;;;;;;;2.20;2.00;;;30.40;38.80;;;;;;5051593;28;20438;-87
2022/06/24 10:44:59;;;;;;;5.03;2.10;;;30.90;37.60;;;;;;5043019;28;20457;-86
2022/06/24 10:47:43;;;;;;;2.57;2.20;;;31.20;37.80;;;;;;5047963;28;20450;-85
2022/06/24 10:50:18;;;;;;;2.47;2.27;;;31.20;36.60;;;;;;5060622;28;20628;-85
2022/06/24 10:53:00;;;;;;;2.53;2.03;;;31.60;36.60;;;;;;5047416;28;20468;-89
2022/06/24 10:55:42;;;;;;;3.63;1.80;;;32.00;35.30;;;;;;5062369;28;20460;-88
2022/06/24 10:58:13;;;;;;;2.20;2.00;;;31.80;35.60;;;;;;5045533;28;20470;-88
2022/06/24 11:00:51;;;;;;;3.07;2.20;;;31.40;36.50;;;;;;5038430;28;20475;-85
2022/06/24 11:03:44;;;;;;;2.40;2.20;;;31.40;37.00;;;;;;5038748;28;20457;-85
2022/06/24 11:06:12;;;;;;;3.00;2.20;;;31.00;36.60;;;;;;5045887;28;20445;-88
2022/06/24 11:08:39;;;;;;;2.30;2.10;;;30.40;37.30;;;;;;5046311;28;20448;-87
2022/06/24 11:11:06;;;;;;;2.30;2.20;;;30.30;38.90;;;;;;5045662;28;20554;-86
2022/06/24 11:13:34;;;;;;;4.17;2.20;;;30.30;39.00;;;;;;5052358;28;20477;-87
2022/06/24 11:16:02;;;;;;;2.90;2.30;;;30.20;38.60;;;;;;5043915;28;20532;-87
2022/06/24 11:18:31;;;;;;;7.40;2.33;;;30.30;38.70;;;;;;5048827;28;20450;-86
2022/06/24 11:21:00;;;;;;;5.47;2.23;;;30.20;38.90;;;;;;5055488;28;20556;-85
2022/06/24 11:23:29;;;;;;;2.40;2.20;;;30.40;39.00;;;;;;5048466;28;20551;-86
2022/06/24 11:26:00;;;;;;;2.57;2.37;;;30.20;39.40;;;;;;5046029;28;20447;-89
2022/06/24 11:28:28;;;;;;;5.83;2.13;;;30.00;39.60;;;;;;5046383;28;20461;-88
2022/06/24 11:31:13;;;;;;;2.47;2.27;;;30.00;40.00;;;;;;5045277;28;20526;-89
2022/06/24 11:33:40;;;;;;;2.60;2.40;;;30.20;40.10;;;;;;5045695;28;20469;-88
2022/06/24 11:36:08;;;;;;;3.40;1.93;;;30.30;39.40;;;;;;5045939;28;20477;-85
2022/06/24 11:38:36;;;;;;;2.00;1.60;;;30.50;38.60;;;;;;5046563;28;20433;-90
2022/06/24 11:41:03;;;;;;;2.67;2.10;;;30.50;38.30;;;;;;5045921;28;20489;-87
2022/06/24 11:43:30;;;;;;;4.03;2.53;;;30.50;38.20;;;;;;5048161;28;20463;-86
2022/06/24 11:46:00;;;;;;;3.40;2.87;;;30.50;38.30;;;;;;5037408;28;20441;-89
2022/06/24 11:48:28;;;;;;;2.63;2.10;;;30.30;38.80;;;;;;5047645;28;20453;-88
2022/06/24 11:50:55;;;;;;;3.10;2.20;;;30.30;39.00;;;;;;5045155;28;20496;-86
2022/06/24 11:53:26;;;;;;;3.03;2.53;;;30.20;38.40;;;;;;5060815;28;20472;-86
2022/06/24 11:55:55;;;;;;;2.70;2.50;;;30.20;38.80;;;;;;5053688;28;20460;-85
2022/06/24 11:58:23;;;;;;;2.40;1.90;;;30.30;38.40;;;;;;5047480;28;20446;-89
2022/06/24 12:00:52;;;;;;;2.10;2.00;;;30.30;37.80;;;;;;5045925;28;20477;-87
2022/06/24 12:03:23;;;;;;;1.77;1.67;;;30.70;37.00;;;;;;5049659;28;20437;-85
2022/06/24 12:05:50;;;;;;;2.50;2.03;;;31.00;35.80;;;;;;5046858;28;20451;-86
2022/06/24 12:08:18;;;;;;;1.97;1.87;;;31.30;34.40;;;;;;5045389;28;20972;-88
2022/06/24 12:10:53;;;;;;;2.10;2.00;;;31.70;35.50;;;;;;5044849;28;20461;-85
2022/06/24 12:13:29;;;;;;;1.90;1.80;;;31.60;34.50;;;;;;5051379;28;20484;-85
2022/06/24 12:15:58;;;;;;;3.27;1.70;;;31.10;34.20;;;;;;5046501;28;21593;-85
2022/06/24 12:18:28;;;;;;;2.33;2.13;;;30.70;36.10;;;;;;5045555;28;20451;-87
2022/06/24 12:21:03;;;;;;;2.00;1.90;;;30.30;36.60;;;;;;5045863;28;20512;-86
2022/06/24 12:23:33;;;;;;;2.10;2.00;;;30.40;37.20;;;;;;5047058;28;20445;-89
2022/06/24 12:26:07;;;;;;;2.30;2.10;;;30.50;37.20;;;;;;5043373;28;20444;-88
2022/06/24 12:28:34;;;;;;;3.33;2.37;;;30.60;36.80;;;;;;5051447;28;21142;-87
2022/06/24 12:31:04;;;;;;;1.90;1.80;;;31.10;36.60;;;;;;5045976;28;20473;-86
2022/06/24 12:33:33;;;;;;;2.57;2.20;;;31.60;35.70;;;;;;5052718;28;20465;-86
2022/06/24 12:36:06;;;;;;;2.33;2.03;;;32.20;34.90;;;;;;5047211;28;20450;-88
2022/06/24 12:38:33;;;;;;;2.30;2.00;;;32.30;33.10;;;;;;5051441;28;20449;-86
2022/06/24 12:41:08;;;;;;;2.00;1.73;;;32.60;33.50;;;;;;5056435;28;20472;-87
2022/06/24 12:43:35;;;;;;;2.50;2.30;;;32.60;33.70;;;;;;5049736;28;20453;-85
2022/06/24 12:46:04;;;;;;;4.07;1.83;;;32.70;32.60;;;;;;5033284;28;20522;-85
2022/06/24 12:51:25;;;;;;;1.97;1.80;;;33.10;32.00;;;;;;5048871;28;21332;-90
2022/06/24 12:53:54;;;;;;;1.70;1.53;;;33.10;31.00;;;;;;5048926;28;20495;-90
2022/06/24 12:56:22;;;;;;;3.00;1.70;;;33.30;31.50;;;;;;5047074;28;20448;-85
2022/06/24 12:58:51;;;;;;;2.00;1.90;;;33.50;31.70;;;;;;5048656;28;20499;-86
2022/06/24 13:01:18;;;;;;;2.80;1.70;;;33.80;31.10;;;;;;5049562;28;20485;-86
2022/06/24 13:03:46;;;;;;;1.77;1.67;;;33.80;29.80;;;;;;5046923;28;20511;-87